sensor_id;sensor_type;location;lat;lon;timestamp;temperature;humidity
28548;DHT22;68292;49.600;8.746;2023-03-04T00:00:09;11.90;41.00
28548;DHT22;68292;49.600;8.746;2023-03-04T00:02:39;11.90;41.10
28548;DHT22;68292;49.600;8.746;2023-03-04T00:05:08;11.90;41.00
28548;DHT22;68292;49.600;8.746;2023-03-04T00:07:37;11.90;41.00
28548;DHT22;68292;49.600;8.746;2023-03-04T00:10:06;11.90;41.00
28548;DHT22;68292;49.600;8.746;2023-03-04T00:12:37;11.90;41.00
28548;DHT22;68292;49.600;8.746;2023-03-04T00:15:06;11.90;41.00
28548;DHT22;68292;49.600;8.746;2023-03-04T00:17:36;11.90;40.90
28548;DHT22;68292;49.600;8.746;2023-03-04T00:20:06;11.90;40.80
28548;DHT22;68292;49.600;8.746;2023-03-04T00:22:35;11.90;40.80
28548;DHT22;68292;49.600;8.746;2023-03-04T00:25:05;11.80;40.70
28548;DHT22;68292;49.600;8.746;2023-03-04T00:27:34;11.80;40.80
28548;DHT22;68292;49.600;8.746;2023-03-04T00:30:06;11.80;40.90
28548;DHT22;68292;49.600;8.746;2023-03-04T00:32:35;11.80;40.90
28548;DHT22;68292;49.600;8.746;2023-03-04T00:35:05;11.80;40.90
28548;DHT22;68292;49.600;8.746;2023-03-04T00:37:34;11.80;41.00
28548;DHT22;68292;49.600;8.746;2023-03-04T00:40:04;11.80;41.00
28548;DHT22;68292;49.600;8.746;2023-03-04T00:42:33;11.80;41.10
28548;DHT22;68292;49.600;8.746;2023-03-04T00:45:03;11.80;41.10
28548;DHT22;68292;49.600;8.746;2023-03-04T00:47:33;11.80;41.10
28548;DHT22;68292;49.600;8.746;2023-03-04T00:50:03;11.70;41.10
28548;DHT22;68292;49.600;8.746;2023-03-04T00:52:32;11.70;41.10
28548;DHT22;68292;49.600;8.746;2023-03-04T00:55:01;11.70;41.10
28548;DHT22;68292;49.600;8.746;2023-03-04T00:57:29;11.70;41.10
28548;DHT22;68292;49.600;8.746;2023-03-04T00:59:58;11.70;41.10
28548;DHT22;68292;49.600;8.746;2023-03-04T01:02:29;11.70;41.20
28548;DHT22;68292;49.600;8.746;2023-03-04T01:04:57;11.70;41.20
28548;DHT22;68292;49.600;8.746;2023-03-04T01:07:26;11.70;41.10
28548;DHT22;68292;49.600;8.746;2023-03-04T01:09:55;11.70;41.10
28548;DHT22;68292;49.600;8.746;2023-03-04T01:12:23;11.70;41.10
28548;DHT22;68292;49.600;8.746;2023-03-04T01:14:52;11.70;41.20
28548;DHT22;68292;49.600;8.746;2023-03-04T01:17:21;11.70;41.20
28548;DHT22;68292;49.600;8.746;2023-03-04T01:19:51;11.70;41.20
28548;DHT22;68292;49.600;8.746;2023-03-04T01:22:20;11.70;41.10
28548;DHT22;68292;49.600;8.746;2023-03-04T01:24:49;11.60;41.00
28548;DHT22;68292;49.600;8.746;2023-03-04T01:27:17;11.60;41.10
28548;DHT22;68292;49.600;8.746;2023-03-04T01:29:46;11.60;41.10
28548;DHT22;68292;49.600;8.746;2023-03-04T01:32:15;11.60;41.10
28548;DHT22;68292;49.600;8.746;2023-03-04T01:34:44;11.60;41.10
28548;DHT22;68292;49.600;8.746;2023-03-04T01:37:14;11.60;41.00
28548;DHT22;68292;49.600;8.746;2023-03-04T01:39:42;11.60;40.80
28548;DHT22;68292;49.600;8.746;2023-03-04T01:42:16;11.60;40.70
28548;DHT22;68292;49.600;8.746;2023-03-04T01:44:47;11.60;40.60
28548;DHT22;68292;49.600;8.746;2023-03-04T01:47:17;11.60;40.70
28548;DHT22;68292;49.600;8.746;2023-03-04T01:49:49;11.50;40.60
28548;DHT22;68292;49.600;8.746;2023-03-04T01:52:23;11.50;40.60
28548;DHT22;68292;49.600;8.746;2023-03-04T01:54:52;11.50;40.70
28548;DHT22;68292;49.600;8.746;2023-03-04T01:57:23;11.50;40.60
28548;DHT22;68292;49.600;8.746;2023-03-04T02:00:19;11.50;40.70
28548;DHT22;68292;49.600;8.746;2023-03-04T02:02:52;11.50;40.60
28548;DHT22;68292;49.600;8.746;2023-03-04T02:05:23;11.50;40.60
28548;DHT22;68292;49.600;8.746;2023-03-04T02:07:53;11.50;40.60
28548;DHT22;68292;49.600;8.746;2023-03-04T02:10:23;11.50;40.70
28548;DHT22;68292;49.600;8.746;2023-03-04T02:12:52;11.40;40.70
28548;DHT22;68292;49.600;8.746;2023-03-04T02:15:22;11.40;40.70
28548;DHT22;68292;49.600;8.746;2023-03-04T02:17:51;11.40;40.70
28548;DHT22;68292;49.600;8.746;2023-03-04T02:20:48;11.40;40.70
28548;DHT22;68292;49.600;8.746;2023-03-04T02:23:31;11.40;40.60
28548;DHT22;68292;49.600;8.746;2023-03-04T02:26:14;11.40;40.50
28548;DHT22;68292;49.600;8.746;2023-03-04T02:28:47;11.40;40.50
28548;DHT22;68292;49.600;8.746;2023-03-04T02:31:22;11.40;40.50
28548;DHT22;68292;49.600;8.746;2023-03-04T02:33:54;11.40;40.40
28548;DHT22;68292;49.600;8.746;2023-03-04T02:36:27;11.40;40.50
28548;DHT22;68292;49.600;8.746;2023-03-04T02:39:01;11.40;40.40
28548;DHT22;68292;49.600;8.746;2023-03-04T02:41:34;11.40;40.40
28548;DHT22;68292;49.600;8.746;2023-03-04T02:44:08;11.30;40.30
28548;DHT22;68292;49.600;8.746;2023-03-04T02:46:42;11.30;40.40
28548;DHT22;68292;49.600;8.746;2023-03-04T02:49:12;11.30;40.40
28548;DHT22;68292;49.600;8.746;2023-03-04T02:51:41;11.30;40.40
28548;DHT22;68292;49.600;8.746;2023-03-04T02:54:14;11.30;40.40
28548;DHT22;68292;49.600;8.746;2023-03-04T02:56:45;11.30;40.40
28548;DHT22;68292;49.600;8.746;2023-03-04T02:59:15;11.20;40.30
28548;DHT22;68292;49.600;8.746;2023-03-04T03:01:45;11.20;40.40
28548;DHT22;68292;49.600;8.746;2023-03-04T03:04:14;11.20;40.50
28548;DHT22;68292;49.600;8.746;2023-03-04T03:06:43;11.20;40.50
28548;DHT22;68292;49.600;8.746;2023-03-04T03:09:12;11.20;40.60
28548;DHT22;68292;49.600;8.746;2023-03-04T03:11:41;11.20;40.60
28548;DHT22;68292;49.600;8.746;2023-03-04T03:14:11;11.20;40.60
28548;DHT22;68292;49.600;8.746;2023-03-04T03:16:40;11.20;40.60
28548;DHT22;68292;49.600;8.746;2023-03-04T03:19:10;11.20;40.60
28548;DHT22;68292;49.600;8.746;2023-03-04T03:21:39;11.20;40.60
28548;DHT22;68292;49.600;8.746;2023-03-04T03:24:08;11.20;40.60
28548;DHT22;68292;49.600;8.746;2023-03-04T03:26:36;11.20;40.60
28548;DHT22;68292;49.600;8.746;2023-03-04T03:29:07;11.20;40.70
28548;DHT22;68292;49.600;8.746;2023-03-04T03:31:37;11.20;40.70
28548;DHT22;68292;49.600;8.746;2023-03-04T03:34:06;11.20;40.80
28548;DHT22;68292;49.600;8.746;2023-03-04T03:36:34;11.20;40.80
28548;DHT22;68292;49.600;8.746;2023-03-04T03:39:03;11.20;40.80
28548;DHT22;68292;49.600;8.746;2023-03-04T03:41:32;11.20;40.80
28548;DHT22;68292;49.600;8.746;2023-03-04T03:44:01;11.20;40.90
28548;DHT22;68292;49.600;8.746;2023-03-04T03:46:29;11.20;40.90
28548;DHT22;68292;49.600;8.746;2023-03-04T03:48:59;11.20;40.90
28548;DHT22;68292;49.600;8.746;2023-03-04T03:51:28;11.20;40.90
28548;DHT22;68292;49.600;8.746;2023-03-04T03:53:57;11.20;40.90
28548;DHT22;68292;49.600;8.746;2023-03-04T03:56:25;11.20;41.00
28548;DHT22;68292;49.600;8.746;2023-03-04T03:58:54;11.20;41.00
28548;DHT22;68292;49.600;8.746;2023-03-04T04:01:23;11.20;41.00
28548;DHT22;68292;49.600;8.746;2023-03-04T04:03:51;11.20;41.10
28548;DHT22;68292;49.600;8.746;2023-03-04T04:06:21;11.20;41.10
28548;DHT22;68292;49.600;8.746;2023-03-04T04:08:50;11.20;41.20
28548;DHT22;68292;49.600;8.746;2023-03-04T04:11:19;11.30;41.20
28548;DHT22;68292;49.600;8.746;2023-03-04T04:13:48;11.30;41.20
28548;DHT22;68292;49.600;8.746;2023-03-04T04:16:17;11.30;41.20
28548;DHT22;68292;49.600;8.746;2023-03-04T04:18:45;11.30;41.20
28548;DHT22;68292;49.600;8.746;2023-03-04T04:21:14;11.30;41.20
28548;DHT22;68292;49.600;8.746;2023-03-04T04:23:44;11.30;41.20
28548;DHT22;68292;49.600;8.746;2023-03-04T04:26:13;11.30;41.10
28548;DHT22;68292;49.600;8.746;2023-03-04T04:28:41;11.30;41.10
28548;DHT22;68292;49.600;8.746;2023-03-04T04:31:10;11.30;41.10
28548;DHT22;68292;49.600;8.746;2023-03-04T04:33:39;11.30;41.20
28548;DHT22;68292;49.600;8.746;2023-03-04T04:36:09;11.30;41.10
28548;DHT22;68292;49.600;8.746;2023-03-04T04:38:40;11.30;41.20
28548;DHT22;68292;49.600;8.746;2023-03-04T04:41:18;11.30;41.10
28548;DHT22;68292;49.600;8.746;2023-03-04T04:43:49;11.30;41.10
28548;DHT22;68292;49.600;8.746;2023-03-04T04:46:18;11.30;41.10
28548;DHT22;68292;49.600;8.746;2023-03-04T04:48:47;11.30;41.10
28548;DHT22;68292;49.600;8.746;2023-03-04T04:51:16;11.30;41.10
28548;DHT22;68292;49.600;8.746;2023-03-04T04:53:44;11.30;41.20
28548;DHT22;68292;49.600;8.746;2023-03-04T04:56:16;11.30;41.30
28548;DHT22;68292;49.600;8.746;2023-03-04T04:58:46;11.30;41.30
28548;DHT22;68292;49.600;8.746;2023-03-04T05:01:16;11.30;41.30
28548;DHT22;68292;49.600;8.746;2023-03-04T05:03:44;11.30;41.30
28548;DHT22;68292;49.600;8.746;2023-03-04T05:06:15;11.30;41.30
28548;DHT22;68292;49.600;8.746;2023-03-04T05:08:44;11.30;41.30
28548;DHT22;68292;49.600;8.746;2023-03-04T05:11:15;11.30;41.40
28548;DHT22;68292;49.600;8.746;2023-03-04T05:13:46;11.30;41.40
28548;DHT22;68292;49.600;8.746;2023-03-04T05:16:15;11.30;41.30
28548;DHT22;68292;49.600;8.746;2023-03-04T05:18:44;11.40;41.40
28548;DHT22;68292;49.600;8.746;2023-03-04T05:21:13;11.40;41.40
28548;DHT22;68292;49.600;8.746;2023-03-04T05:23:43;11.30;41.40
28548;DHT22;68292;49.600;8.746;2023-03-04T05:26:15;11.40;41.40
28548;DHT22;68292;49.600;8.746;2023-03-04T05:28:45;11.40;41.50
28548;DHT22;68292;49.600;8.746;2023-03-04T05:31:14;11.40;41.40
28548;DHT22;68292;49.600;8.746;2023-03-04T05:33:44;11.40;41.50
28548;DHT22;68292;49.600;8.746;2023-03-04T05:36:12;11.40;41.50
28548;DHT22;68292;49.600;8.746;2023-03-04T05:38:41;11.40;41.40
28548;DHT22;68292;49.600;8.746;2023-03-04T05:41:09;11.30;41.40
28548;DHT22;68292;49.600;8.746;2023-03-04T05:43:40;11.30;41.40
28548;DHT22;68292;49.600;8.746;2023-03-04T05:46:12;11.30;41.50
28548;DHT22;68292;49.600;8.746;2023-03-04T05:48:42;11.30;41.40
28548;DHT22;68292;49.600;8.746;2023-03-04T05:51:11;11.30;41.40
28548;DHT22;68292;49.600;8.746;2023-03-04T05:53:40;11.30;41.40
28548;DHT22;68292;49.600;8.746;2023-03-04T05:56:10;11.30;41.50
28548;DHT22;68292;49.600;8.746;2023-03-04T05:58:41;11.30;41.40
28548;DHT22;68292;49.600;8.746;2023-03-04T06:01:10;11.30;41.50
28548;DHT22;68292;49.600;8.746;2023-03-04T06:03:39;11.30;41.50
28548;DHT22;68292;49.600;8.746;2023-03-04T06:06:09;11.30;41.50
28548;DHT22;68292;49.600;8.746;2023-03-04T06:08:38;11.30;41.50
28548;DHT22;68292;49.600;8.746;2023-03-04T06:11:07;11.30;41.50
28548;DHT22;68292;49.600;8.746;2023-03-04T06:13:35;11.30;41.60
28548;DHT22;68292;49.600;8.746;2023-03-04T06:16:06;11.30;41.60
28548;DHT22;68292;49.600;8.746;2023-03-04T06:18:35;11.30;41.70
28548;DHT22;68292;49.600;8.746;2023-03-04T06:21:04;11.30;41.80
28548;DHT22;68292;49.600;8.746;2023-03-04T06:23:33;11.30;41.80
28548;DHT22;68292;49.600;8.746;2023-03-04T06:26:02;11.30;41.80
28548;DHT22;68292;49.600;8.746;2023-03-04T06:28:31;11.30;41.90
28548;DHT22;68292;49.600;8.746;2023-03-04T06:31:00;11.30;41.90
28548;DHT22;68292;49.600;8.746;2023-03-04T06:33:30;11.40;42.00
28548;DHT22;68292;49.600;8.746;2023-03-04T06:35:59;11.40;42.00
28548;DHT22;68292;49.600;8.746;2023-03-04T06:38:27;11.40;42.00
28548;DHT22;68292;49.600;8.746;2023-03-04T06:40:56;11.40;42.00
28548;DHT22;68292;49.600;8.746;2023-03-04T06:43:33;11.40;42.00
28548;DHT22;68292;49.600;8.746;2023-03-04T06:46:02;11.40;42.00
28548;DHT22;68292;49.600;8.746;2023-03-04T06:48:32;11.40;42.00
28548;DHT22;68292;49.600;8.746;2023-03-04T06:51:05;11.40;42.00
28548;DHT22;68292;49.600;8.746;2023-03-04T06:53:34;11.40;42.00
28548;DHT22;68292;49.600;8.746;2023-03-04T06:56:04;11.40;42.00
28548;DHT22;68292;49.600;8.746;2023-03-04T06:58:33;11.40;42.10
28548;DHT22;68292;49.600;8.746;2023-03-04T07:01:10;11.50;42.10
28548;DHT22;68292;49.600;8.746;2023-03-04T07:03:41;11.40;42.40
28548;DHT22;68292;49.600;8.746;2023-03-04T07:06:12;11.50;42.20
28548;DHT22;68292;49.600;8.746;2023-03-04T07:08:42;11.50;42.20
28548;DHT22;68292;49.600;8.746;2023-03-04T07:11:11;11.50;42.20
28548;DHT22;68292;49.600;8.746;2023-03-04T07:13:40;11.50;42.40
28548;DHT22;68292;49.600;8.746;2023-03-04T07:16:11;11.50;42.40
28548;DHT22;68292;49.600;8.746;2023-03-04T07:18:42;11.50;43.10
28548;DHT22;68292;49.600;8.746;2023-03-04T07:21:12;11.50;42.40
28548;DHT22;68292;49.600;8.746;2023-03-04T07:23:42;11.60;42.50
28548;DHT22;68292;49.600;8.746;2023-03-04T07:26:11;11.60;42.40
28548;DHT22;68292;49.600;8.746;2023-03-04T07:28:40;11.60;42.40
28548;DHT22;68292;49.600;8.746;2023-03-04T07:31:11;11.60;42.40
28548;DHT22;68292;49.600;8.746;2023-03-04T07:33:42;11.60;42.40
28548;DHT22;68292;49.600;8.746;2023-03-04T07:36:11;11.60;42.40
28548;DHT22;68292;49.600;8.746;2023-03-04T07:38:42;11.60;42.40
28548;DHT22;68292;49.600;8.746;2023-03-04T07:41:12;11.60;42.50
28548;DHT22;68292;49.600;8.746;2023-03-04T07:43:40;11.60;42.40
28548;DHT22;68292;49.600;8.746;2023-03-04T07:46:10;11.60;42.50
28548;DHT22;68292;49.600;8.746;2023-03-04T07:48:39;11.60;42.50
28548;DHT22;68292;49.600;8.746;2023-03-04T07:51:11;11.60;42.50
28548;DHT22;68292;49.600;8.746;2023-03-04T07:53:43;11.60;42.70
28548;DHT22;68292;49.600;8.746;2023-03-04T07:56:15;11.60;42.70
28548;DHT22;68292;49.600;8.746;2023-03-04T07:58:45;11.60;42.80
28548;DHT22;68292;49.600;8.746;2023-03-04T08:01:16;11.70;42.80
28548;DHT22;68292;49.600;8.746;2023-03-04T08:03:46;11.70;43.50
28548;DHT22;68292;49.600;8.746;2023-03-04T08:06:17;11.70;42.90
28548;DHT22;68292;49.600;8.746;2023-03-04T08:08:47;11.70;43.20
28548;DHT22;68292;49.600;8.746;2023-03-04T08:11:18;11.70;43.10
28548;DHT22;68292;49.600;8.746;2023-03-04T08:13:48;11.70;43.20
28548;DHT22;68292;49.600;8.746;2023-03-04T08:16:21;11.70;43.20
28548;DHT22;68292;49.600;8.746;2023-03-04T08:18:52;11.70;43.30
28548;DHT22;68292;49.600;8.746;2023-03-04T08:21:24;11.80;43.30
28548;DHT22;68292;49.600;8.746;2023-03-04T08:23:55;11.80;43.40
28548;DHT22;68292;49.600;8.746;2023-03-04T08:26:27;11.80;43.40
28548;DHT22;68292;49.600;8.746;2023-03-04T08:29:00;11.80;43.50
28548;DHT22;68292;49.600;8.746;2023-03-04T08:31:30;11.80;43.60
28548;DHT22;68292;49.600;8.746;2023-03-04T08:34:02;11.80;43.50
28548;DHT22;68292;49.600;8.746;2023-03-04T08:36:32;11.90;43.60
28548;DHT22;68292;49.600;8.746;2023-03-04T08:39:01;11.90;43.60
28548;DHT22;68292;49.600;8.746;2023-03-04T08:41:30;11.90;43.60
28548;DHT22;68292;49.600;8.746;2023-03-04T08:44:00;11.90;43.60
28548;DHT22;68292;49.600;8.746;2023-03-04T08:46:29;12.00;43.70
28548;DHT22;68292;49.600;8.746;2023-03-04T08:48:58;12.00;43.70
28548;DHT22;68292;49.600;8.746;2023-03-04T08:51:27;12.00;43.70
28548;DHT22;68292;49.600;8.746;2023-03-04T08:53:57;12.00;43.70
28548;DHT22;68292;49.600;8.746;2023-03-04T08:56:25;12.00;43.70
28548;DHT22;68292;49.600;8.746;2023-03-04T08:58:54;12.10;43.70
28548;DHT22;68292;49.600;8.746;2023-03-04T09:01:23;12.10;43.60
28548;DHT22;68292;49.600;8.746;2023-03-04T09:03:51;12.10;43.60
28548;DHT22;68292;49.600;8.746;2023-03-04T09:06:20;12.10;43.60
28548;DHT22;68292;49.600;8.746;2023-03-04T09:08:49;12.10;43.70
28548;DHT22;68292;49.600;8.746;2023-03-04T09:11:19;12.10;43.70
28548;DHT22;68292;49.600;8.746;2023-03-04T09:13:48;12.20;43.70
28548;DHT22;68292;49.600;8.746;2023-03-04T09:16:17;12.20;43.70
28548;DHT22;68292;49.600;8.746;2023-03-04T09:18:46;12.20;43.70
28548;DHT22;68292;49.600;8.746;2023-03-04T09:21:15;12.30;43.80
28548;DHT22;68292;49.600;8.746;2023-03-04T09:23:44;12.30;43.80
28548;DHT22;68292;49.600;8.746;2023-03-04T09:26:18;12.30;43.70
28548;DHT22;68292;49.600;8.746;2023-03-04T09:28:50;12.30;43.80
28548;DHT22;68292;49.600;8.746;2023-03-04T09:31:20;12.30;43.70
28548;DHT22;68292;49.600;8.746;2023-03-04T09:33:51;12.40;43.70
28548;DHT22;68292;49.600;8.746;2023-03-04T09:36:21;12.40;43.70
28548;DHT22;68292;49.600;8.746;2023-03-04T09:38:50;12.40;43.70
28548;DHT22;68292;49.600;8.746;2023-03-04T09:41:22;12.50;43.70
28548;DHT22;68292;49.600;8.746;2023-03-04T09:43:53;12.50;43.70
28548;DHT22;68292;49.600;8.746;2023-03-04T09:46:28;12.50;43.60
28548;DHT22;68292;49.600;8.746;2023-03-04T09:49:00;12.50;43.60
28548;DHT22;68292;49.600;8.746;2023-03-04T09:51:43;12.60;43.60
28548;DHT22;68292;49.600;8.746;2023-03-04T09:54:23;12.60;43.60
28548;DHT22;68292;49.600;8.746;2023-03-04T09:57:12;12.60;43.50
28548;DHT22;68292;49.600;8.746;2023-03-04T09:59:51;12.60;43.40
28548;DHT22;68292;49.600;8.746;2023-03-04T10:02:35;12.70;43.50
28548;DHT22;68292;49.600;8.746;2023-03-04T10:05:14;12.70;43.50
28548;DHT22;68292;49.600;8.746;2023-03-04T10:07:47;12.70;43.50
28548;DHT22;68292;49.600;8.746;2023-03-04T10:10:25;12.70;43.30
28548;DHT22;68292;49.600;8.746;2023-03-04T10:12:59;12.80;43.40
28548;DHT22;68292;49.600;8.746;2023-03-04T10:15:33;12.80;43.20
28548;DHT22;68292;49.600;8.746;2023-03-04T10:18:13;12.80;43.30
28548;DHT22;68292;49.600;8.746;2023-03-04T10:20:53;12.80;43.30
28548;DHT22;68292;49.600;8.746;2023-03-04T10:23:25;12.80;43.20
28548;DHT22;68292;49.600;8.746;2023-03-04T10:25:55;12.80;43.20
28548;DHT22;68292;49.600;8.746;2023-03-04T10:28:26;12.80;43.10
28548;DHT22;68292;49.600;8.746;2023-03-04T10:31:01;12.90;43.10
28548;DHT22;68292;49.600;8.746;2023-03-04T10:33:32;12.90;43.70
28548;DHT22;68292;49.600;8.746;2023-03-04T10:36:05;12.90;43.00
28548;DHT22;68292;49.600;8.746;2023-03-04T10:38:46;12.90;43.10
28548;DHT22;68292;49.600;8.746;2023-03-04T10:41:17;12.90;43.00
28548;DHT22;68292;49.600;8.746;2023-03-04T10:44:00;12.90;43.10
28548;DHT22;68292;49.600;8.746;2023-03-04T10:46:30;12.90;43.00
28548;DHT22;68292;49.600;8.746;2023-03-04T10:48:59;12.90;43.00
28548;DHT22;68292;49.600;8.746;2023-03-04T10:51:29;13.00;43.10
28548;DHT22;68292;49.600;8.746;2023-03-04T10:54:02;13.00;43.10
28548;DHT22;68292;49.600;8.746;2023-03-04T10:56:37;13.00;43.10
28548;DHT22;68292;49.600;8.746;2023-03-04T10:59:30;13.00;43.10
28548;DHT22;68292;49.600;8.746;2023-03-04T11:02:13;13.00;43.10
28548;DHT22;68292;49.600;8.746;2023-03-04T11:04:49;13.10;43.30
28548;DHT22;68292;49.600;8.746;2023-03-04T11:07:20;13.10;43.10
28548;DHT22;68292;49.600;8.746;2023-03-04T11:09:49;13.10;43.10
28548;DHT22;68292;49.600;8.746;2023-03-04T11:12:20;13.10;43.10
28548;DHT22;68292;49.600;8.746;2023-03-04T11:15:00;13.10;43.20
28548;DHT22;68292;49.600;8.746;2023-03-04T11:17:40;13.10;43.00
28548;DHT22;68292;49.600;8.746;2023-03-04T11:20:15;13.10;43.00
28548;DHT22;68292;49.600;8.746;2023-03-04T11:22:47;13.20;43.00
28548;DHT22;68292;49.600;8.746;2023-03-04T11:25:24;13.20;43.00
28548;DHT22;68292;49.600;8.746;2023-03-04T11:27:57;13.20;43.00
28548;DHT22;68292;49.600;8.746;2023-03-04T11:30:37;13.20;42.90
28548;DHT22;68292;49.600;8.746;2023-03-04T11:33:20;13.30;43.00
28548;DHT22;68292;49.600;8.746;2023-03-04T11:35:58;13.30;42.90
28548;DHT22;68292;49.600;8.746;2023-03-04T11:38:36;13.30;42.80
28548;DHT22;68292;49.600;8.746;2023-03-04T11:41:10;13.30;42.80
28548;DHT22;68292;49.600;8.746;2023-03-04T11:43:45;13.30;42.70
28548;DHT22;68292;49.600;8.746;2023-03-04T11:46:41;13.30;42.70
28548;DHT22;68292;49.600;8.746;2023-03-04T11:49:41;13.30;42.70
28548;DHT22;68292;49.600;8.746;2023-03-04T11:52:32;13.40;42.80
28548;DHT22;68292;49.600;8.746;2023-03-04T11:55:21;13.40;42.80
28548;DHT22;68292;49.600;8.746;2023-03-04T11:58:00;13.40;42.80
28548;DHT22;68292;49.600;8.746;2023-03-04T12:00:39;13.40;42.80
28548;DHT22;68292;49.600;8.746;2023-03-04T12:03:26;13.40;42.70
28548;DHT22;68292;49.600;8.746;2023-03-04T12:06:09;13.40;43.30
28548;DHT22;68292;49.600;8.746;2023-03-04T12:08:53;13.40;42.70
28548;DHT22;68292;49.600;8.746;2023-03-04T12:11:36;13.50;42.70
28548;DHT22;68292;49.600;8.746;2023-03-04T12:14:24;13.50;42.70
28548;DHT22;68292;49.600;8.746;2023-03-04T12:17:07;13.40;42.60
28548;DHT22;68292;49.600;8.746;2023-03-04T12:20:17;13.50;42.70
28548;DHT22;68292;49.600;8.746;2023-03-04T12:23:00;13.50;42.60
28548;DHT22;68292;49.600;8.746;2023-03-04T12:25:42;13.50;42.70
28548;DHT22;68292;49.600;8.746;2023-03-04T12:28:30;13.50;42.60
28548;DHT22;68292;49.600;8.746;2023-03-04T12:31:19;13.50;42.70
28548;DHT22;68292;49.600;8.746;2023-03-04T12:40:46;13.50;42.90
28548;DHT22;68292;49.600;8.746;2023-03-04T12:43:34;13.50;42.90
28548;DHT22;68292;49.600;8.746;2023-03-04T12:46:25;13.50;42.90
28548;DHT22;68292;49.600;8.746;2023-03-04T12:49:14;13.50;43.00
28548;DHT22;68292;49.600;8.746;2023-03-04T12:51:56;13.50;43.00
28548;DHT22;68292;49.600;8.746;2023-03-04T12:54:32;13.60;42.90
28548;DHT22;68292;49.600;8.746;2023-03-04T12:57:08;13.60;42.90
28548;DHT22;68292;49.600;8.746;2023-03-04T12:59:43;13.60;42.90
28548;DHT22;68292;49.600;8.746;2023-03-04T13:02:58;13.60;43.00
28548;DHT22;68292;49.600;8.746;2023-03-04T13:05:49;13.60;43.20
28548;DHT22;68292;49.600;8.746;2023-03-04T13:08:31;13.60;43.10
28548;DHT22;68292;49.600;8.746;2023-03-04T13:14:37;13.60;43.10
28548;DHT22;68292;49.600;8.746;2023-03-04T13:17:37;13.60;43.10
28548;DHT22;68292;49.600;8.746;2023-03-04T13:20:22;13.60;43.10
28548;DHT22;68292;49.600;8.746;2023-03-04T13:22:54;13.60;43.00
28548;DHT22;68292;49.600;8.746;2023-03-04T13:25:40;13.60;43.00
28548;DHT22;68292;49.600;8.746;2023-03-04T13:28:21;13.60;43.00
28548;DHT22;68292;49.600;8.746;2023-03-04T13:31:13;13.60;43.00
28548;DHT22;68292;49.600;8.746;2023-03-04T13:33:56;13.60;43.00
28548;DHT22;68292;49.600;8.746;2023-03-04T13:39:28;13.60;42.90
28548;DHT22;68292;49.600;8.746;2023-03-04T13:42:00;13.60;42.90
28548;DHT22;68292;49.600;8.746;2023-03-04T13:45:03;13.60;42.90
28548;DHT22;68292;49.600;8.746;2023-03-04T13:47:42;13.60;43.00
28548;DHT22;68292;49.600;8.746;2023-03-04T13:53:41;13.60;43.10
28548;DHT22;68292;49.600;8.746;2023-03-04T13:56:26;13.60;43.10
28548;DHT22;68292;49.600;8.746;2023-03-04T13:59:18;13.60;43.10
28548;DHT22;68292;49.600;8.746;2023-03-04T14:02:01;13.60;43.00
28548;DHT22;68292;49.600;8.746;2023-03-04T14:04:37;13.60;43.10
28548;DHT22;68292;49.600;8.746;2023-03-04T14:07:19;13.60;43.00
28548;DHT22;68292;49.600;8.746;2023-03-04T14:09:58;13.60;43.20
28548;DHT22;68292;49.600;8.746;2023-03-04T14:12:32;13.60;43.20
28548;DHT22;68292;49.600;8.746;2023-03-04T14:15:05;13.60;43.10
28548;DHT22;68292;49.600;8.746;2023-03-04T14:17:49;13.60;43.20
28548;DHT22;68292;49.600;8.746;2023-03-04T14:20:24;13.60;43.10
28548;DHT22;68292;49.600;8.746;2023-03-04T14:22:54;13.60;43.10
28548;DHT22;68292;49.600;8.746;2023-03-04T14:25:25;13.60;43.00
28548;DHT22;68292;49.600;8.746;2023-03-04T14:28:03;13.60;43.10
28548;DHT22;68292;49.600;8.746;2023-03-04T14:30:35;13.60;43.30
28548;DHT22;68292;49.600;8.746;2023-03-04T14:33:16;13.60;43.30
28548;DHT22;68292;49.600;8.746;2023-03-04T14:35:49;13.60;43.30
28548;DHT22;68292;49.600;8.746;2023-03-04T14:38:23;13.60;43.20
28548;DHT22;68292;49.600;8.746;2023-03-04T14:40:56;13.60;43.20
28548;DHT22;68292;49.600;8.746;2023-03-04T14:43:28;13.70;43.30
28548;DHT22;68292;49.600;8.746;2023-03-04T14:46:00;13.70;43.20
28548;DHT22;68292;49.600;8.746;2023-03-04T14:48:31;13.70;43.20
28548;DHT22;68292;49.600;8.746;2023-03-04T14:51:01;13.70;43.10
28548;DHT22;68292;49.600;8.746;2023-03-04T14:53:31;13.70;43.10
28548;DHT22;68292;49.600;8.746;2023-03-04T14:56:04;13.70;43.10
28548;DHT22;68292;49.600;8.746;2023-03-04T14:58:36;13.70;43.00
28548;DHT22;68292;49.600;8.746;2023-03-04T15:01:14;13.70;43.10
28548;DHT22;68292;49.600;8.746;2023-03-04T15:03:52;13.70;43.20
28548;DHT22;68292;49.600;8.746;2023-03-04T15:06:25;13.70;43.20
28548;DHT22;68292;49.600;8.746;2023-03-04T15:08:56;13.70;43.00
28548;DHT22;68292;49.600;8.746;2023-03-04T15:11:29;13.70;43.00
28548;DHT22;68292;49.600;8.746;2023-03-04T15:13:59;13.70;43.10
28548;DHT22;68292;49.600;8.746;2023-03-04T15:16:54;13.70;43.20
28548;DHT22;68292;49.600;8.746;2023-03-04T15:19:25;13.70;43.20
28548;DHT22;68292;49.600;8.746;2023-03-04T15:22:03;13.70;43.00
28548;DHT22;68292;49.600;8.746;2023-03-04T15:24:32;13.70;43.00
28548;DHT22;68292;49.600;8.746;2023-03-04T15:27:01;13.70;43.10
28548;DHT22;68292;49.600;8.746;2023-03-04T15:29:33;13.70;43.20
28548;DHT22;68292;49.600;8.746;2023-03-04T15:32:04;13.70;43.10
28548;DHT22;68292;49.600;8.746;2023-03-04T15:34:32;13.70;43.20
28548;DHT22;68292;49.600;8.746;2023-03-04T15:37:01;13.70;43.20
28548;DHT22;68292;49.600;8.746;2023-03-04T15:39:30;13.70;43.20
28548;DHT22;68292;49.600;8.746;2023-03-04T15:42:00;13.70;43.10
28548;DHT22;68292;49.600;8.746;2023-03-04T15:44:28;13.70;43.10
28548;DHT22;68292;49.600;8.746;2023-03-04T15:46:57;13.70;43.20
28548;DHT22;68292;49.600;8.746;2023-03-04T15:49:27;13.70;43.10
28548;DHT22;68292;49.600;8.746;2023-03-04T15:51:56;13.70;43.20
28548;DHT22;68292;49.600;8.746;2023-03-04T15:54:25;13.70;43.20
28548;DHT22;68292;49.600;8.746;2023-03-04T15:56:56;13.70;43.20
28548;DHT22;68292;49.600;8.746;2023-03-04T15:59:26;13.70;43.20
28548;DHT22;68292;49.600;8.746;2023-03-04T16:01:55;13.70;43.20
28548;DHT22;68292;49.600;8.746;2023-03-04T16:04:23;13.70;43.20
28548;DHT22;68292;49.600;8.746;2023-03-04T16:06:53;13.70;43.20
28548;DHT22;68292;49.600;8.746;2023-03-04T16:09:25;13.70;43.10
28548;DHT22;68292;49.600;8.746;2023-03-04T16:11:54;13.70;43.10
28548;DHT22;68292;49.600;8.746;2023-03-04T16:14:27;13.70;43.10
28548;DHT22;68292;49.600;8.746;2023-03-04T16:16:56;13.70;43.10
28548;DHT22;68292;49.600;8.746;2023-03-04T16:19:25;13.70;43.10
28548;DHT22;68292;49.600;8.746;2023-03-04T16:21:55;13.70;43.20